CheckWX is a tool to help pilots better visualize weather data.  It is not intended as a substitute for an official pre-flight weather briefing.

10:18:10 UTC

KMLI METAR
Quad City International Airport
Moline, Illinois, USA
Current

26 mins ago

KMLI 160952Z AUTO 00000KT 10SM BKN006 22/19 A2991 RMK AO2 SLP122 T02170194
Observed
Jul-16 @ 09:52 UTC
Visibility
10 SM
Flight Rules
IFR
Cloud Levels
  • Broken at 600' AGL
Temperature
22°C / 72°F
Dewpoint
19°C / 66°F
Humidity
83%
Altimeter
29.91" Hg
Pressure
1012.92 hPa
Previous

42 mins ago

KMLI 160936Z AUTO 00000KT 10SM BKN007 22/20 A2991 RMK AO2 T02220200
Observed
Jul-16 @ 09:36 UTC
Visibility
10 SM
Flight Rules
IFR
Cloud Levels
  • Broken at 700' AGL
Temperature
22°C / 72°F
Dewpoint
20°C / 68°F
Humidity
88%
Altimeter
29.91" Hg
Pressure
1012.92 hPa
Previous

1 hour ago

KMLI 160852Z AUTO 11003KT 10SM FEW009 FEW030 22/19 A2992 RMK AO2 SLP126 T02170194 56013
Observed
Jul-16 @ 08:52 UTC
Wind
  • 110° at 3 KTS
Visibility
10 SM
Flight Rules
VFR
Cloud Levels
  • Few at 900' AGL
  • Few at 3,000' AGL
Temperature
22°C / 72°F
Dewpoint
19°C / 66°F
Humidity
83%
Altimeter
29.92" Hg
Pressure
1013.22 hPa